sensor_id;sensor_type;location;lat;lon;timestamp;P1;durP1;ratioP1;P2;durP2;ratioP2
58384;SDS011;44185;47.844;8.966;2024-01-16T00:00:22;13.18;;;4.97;;
58384;SDS011;44185;47.844;8.966;2024-01-16T00:02:47;9.70;;;4.90;;
58384;SDS011;44185;47.844;8.966;2024-01-16T00:05:12;10.93;;;3.90;;
58384;SDS011;44185;47.844;8.966;2024-01-16T00:07:38;9.70;;;4.78;;
58384;SDS011;44185;47.844;8.966;2024-01-16T00:10:06;12.18;;;4.50;;
58384;SDS011;44185;47.844;8.966;2024-01-16T00:12:32;6.38;;;4.03;;
58384;SDS011;44185;47.844;8.966;2024-01-16T00:14:58;9.18;;;4.07;;
58384;SDS011;44185;47.844;8.966;2024-01-16T00:17:23;11.50;;;4.68;;
58384;SDS011;44185;47.844;8.966;2024-01-16T00:19:51;9.38;;;3.90;;
58384;SDS011;44185;47.844;8.966;2024-01-16T00:22:17;10.70;;;4.47;;
58384;SDS011;44185;47.844;8.966;2024-01-16T00:24:42;9.63;;;3.83;;
58384;SDS011;44185;47.844;8.966;2024-01-16T00:27:09;8.45;;;3.38;;
58384;SDS011;44185;47.844;8.966;2024-01-16T00:29:35;7.20;;;3.55;;
58384;SDS011;44185;47.844;8.966;2024-01-16T00:32:00;9.48;;;3.85;;
58384;SDS011;44185;47.844;8.966;2024-01-16T00:34:26;6.10;;;2.80;;
58384;SDS011;44185;47.844;8.966;2024-01-16T00:36:51;8.08;;;3.22;;
58384;SDS011;44185;47.844;8.966;2024-01-16T00:39:16;6.03;;;2.97;;
58384;SDS011;44185;47.844;8.966;2024-01-16T00:41:42;6.63;;;3.40;;
58384;SDS011;44185;47.844;8.966;2024-01-16T00:44:09;6.45;;;3.15;;
58384;SDS011;44185;47.844;8.966;2024-01-16T00:46:36;5.72;;;2.63;;
58384;SDS011;44185;47.844;8.966;2024-01-16T00:49:01;7.50;;;3.40;;
58384;SDS011;44185;47.844;8.966;2024-01-16T00:51:27;7.72;;;3.28;;
58384;SDS011;44185;47.844;8.966;2024-01-16T00:53:52;8.98;;;3.42;;
58384;SDS011;44185;47.844;8.966;2024-01-16T00:56:18;5.80;;;2.83;;
58384;SDS011;44185;47.844;8.966;2024-01-16T00:58:43;6.03;;;3.05;;
58384;SDS011;44185;47.844;8.966;2024-01-16T01:01:10;7.13;;;3.28;;
58384;SDS011;44185;47.844;8.966;2024-01-16T01:03:36;4.78;;;3.03;;
58384;SDS011;44185;47.844;8.966;2024-01-16T01:06:01;9.02;;;3.25;;
58384;SDS011;44185;47.844;8.966;2024-01-16T01:08:27;5.63;;;2.45;;
58384;SDS011;44185;47.844;8.966;2024-01-16T01:10:53;8.60;;;4.10;;
58384;SDS011;44185;47.844;8.966;2024-01-16T01:13:18;6.95;;;3.20;;
58384;SDS011;44185;47.844;8.966;2024-01-16T01:15:44;7.27;;;3.33;;
58384;SDS011;44185;47.844;8.966;2024-01-16T01:18:11;3.42;;;2.65;;
58384;SDS011;44185;47.844;8.966;2024-01-16T01:20:36;3.83;;;2.20;;
58384;SDS011;44185;47.844;8.966;2024-01-16T01:23:01;4.43;;;2.88;;
58384;SDS011;44185;47.844;8.966;2024-01-16T01:25:27;6.95;;;3.22;;
58384;SDS011;44185;47.844;8.966;2024-01-16T01:27:52;4.67;;;3.10;;
58384;SDS011;44185;47.844;8.966;2024-01-16T01:30:18;5.13;;;2.93;;
58384;SDS011;44185;47.844;8.966;2024-01-16T01:32:43;9.70;;;3.27;;
58384;SDS011;44185;47.844;8.966;2024-01-16T01:35:10;8.33;;;3.13;;
58384;SDS011;44185;47.844;8.966;2024-01-16T01:37:36;4.07;;;2.40;;
58384;SDS011;44185;47.844;8.966;2024-01-16T01:40:01;9.57;;;3.47;;
58384;SDS011;44185;47.844;8.966;2024-01-16T01:42:27;5.67;;;2.93;;
58384;SDS011;44185;47.844;8.966;2024-01-16T01:44:52;6.20;;;2.57;;
58384;SDS011;44185;47.844;8.966;2024-01-16T01:47:18;4.15;;;2.50;;
58384;SDS011;44185;47.844;8.966;2024-01-16T01:49:44;7.60;;;2.50;;
58384;SDS011;44185;47.844;8.966;2024-01-16T01:52:11;7.20;;;3.00;;
58384;SDS011;44185;47.844;8.966;2024-01-16T01:54:37;6.27;;;3.17;;
58384;SDS011;44185;47.844;8.966;2024-01-16T01:57:03;4.13;;;2.10;;
58384;SDS011;44185;47.844;8.966;2024-01-16T01:59:30;2.67;;;2.43;;
58384;SDS011;44185;47.844;8.966;2024-01-16T02:01:56;7.93;;;2.73;;
58384;SDS011;44185;47.844;8.966;2024-01-16T02:04:22;3.78;;;2.20;;
58384;SDS011;44185;47.844;8.966;2024-01-16T02:06:49;6.50;;;2.90;;
58384;SDS011;44185;47.844;8.966;2024-01-16T02:09:16;4.00;;;2.63;;
58384;SDS011;44185;47.844;8.966;2024-01-16T02:11:41;5.57;;;2.72;;
58384;SDS011;44185;47.844;8.966;2024-01-16T02:14:07;5.30;;;2.60;;
58384;SDS011;44185;47.844;8.966;2024-01-16T02:16:35;4.05;;;2.35;;
58384;SDS011;44185;47.844;8.966;2024-01-16T02:19:01;5.53;;;3.08;;
58384;SDS011;44185;47.844;8.966;2024-01-16T02:21:27;6.97;;;2.70;;
58384;SDS011;44185;47.844;8.966;2024-01-16T02:23:58;5.50;;;2.80;;
58384;SDS011;44185;47.844;8.966;2024-01-16T02:26:23;2.40;;;2.03;;
58384;SDS011;44185;47.844;8.966;2024-01-16T02:28:49;5.97;;;2.47;;
58384;SDS011;44185;47.844;8.966;2024-01-16T02:31:14;5.85;;;2.80;;
58384;SDS011;44185;47.844;8.966;2024-01-16T02:33:40;4.83;;;2.93;;
58384;SDS011;44185;47.844;8.966;2024-01-16T02:36:06;4.77;;;2.73;;
58384;SDS011;44185;47.844;8.966;2024-01-16T02:38:32;6.17;;;2.90;;
58384;SDS011;44185;47.844;8.966;2024-01-16T02:40:58;6.43;;;2.40;;
58384;SDS011;44185;47.844;8.966;2024-01-16T02:43:24;4.63;;;2.53;;
58384;SDS011;44185;47.844;8.966;2024-01-16T02:45:49;4.13;;;2.47;;
58384;SDS011;44185;47.844;8.966;2024-01-16T02:48:15;5.50;;;2.20;;
58384;SDS011;44185;47.844;8.966;2024-01-16T02:50:40;3.73;;;2.40;;
58384;SDS011;44185;47.844;8.966;2024-01-16T02:53:06;7.93;;;2.50;;
58384;SDS011;44185;47.844;8.966;2024-01-16T02:55:31;4.63;;;2.27;;
58384;SDS011;44185;47.844;8.966;2024-01-16T02:57:58;4.63;;;2.73;;
58384;SDS011;44185;47.844;8.966;2024-01-16T03:00:24;5.10;;;3.20;;
58384;SDS011;44185;47.844;8.966;2024-01-16T03:02:49;5.94;;;2.68;;
58384;SDS011;44185;47.844;8.966;2024-01-16T03:05:15;3.30;;;2.37;;
58384;SDS011;44185;47.844;8.966;2024-01-16T03:07:40;6.00;;;3.53;;
58384;SDS011;44185;47.844;8.966;2024-01-16T03:10:06;5.37;;;3.03;;
58384;SDS011;44185;47.844;8.966;2024-01-16T03:12:32;5.03;;;2.30;;
58384;SDS011;44185;47.844;8.966;2024-01-16T03:14:59;5.77;;;2.27;;
58384;SDS011;44185;47.844;8.966;2024-01-16T03:17:24;2.20;;;1.97;;
58384;SDS011;44185;47.844;8.966;2024-01-16T03:19:50;5.20;;;2.57;;
58384;SDS011;44185;47.844;8.966;2024-01-16T03:22:15;3.80;;;2.03;;
58384;SDS011;44185;47.844;8.966;2024-01-16T03:24:40;6.67;;;2.90;;
58384;SDS011;44185;47.844;8.966;2024-01-16T03:27:06;4.40;;;2.43;;
58384;SDS011;44185;47.844;8.966;2024-01-16T03:29:31;3.47;;;2.43;;
58384;SDS011;44185;47.844;8.966;2024-01-16T03:31:58;3.73;;;2.17;;
58384;SDS011;44185;47.844;8.966;2024-01-16T03:34:24;6.60;;;2.70;;
58384;SDS011;44185;47.844;8.966;2024-01-16T03:36:49;4.33;;;2.10;;
58384;SDS011;44185;47.844;8.966;2024-01-16T03:39:15;3.93;;;2.33;;
58384;SDS011;44185;47.844;8.966;2024-01-16T03:41:40;4.54;;;2.96;;
58384;SDS011;44185;47.844;8.966;2024-01-16T03:44:06;2.83;;;2.20;;
58384;SDS011;44185;47.844;8.966;2024-01-16T03:46:31;4.90;;;3.00;;
58384;SDS011;44185;47.844;8.966;2024-01-16T03:48:58;3.83;;;2.30;;
58384;SDS011;44185;47.844;8.966;2024-01-16T03:51:24;5.27;;;2.80;;
58384;SDS011;44185;47.844;8.966;2024-01-16T03:53:49;3.90;;;2.40;;
58384;SDS011;44185;47.844;8.966;2024-01-16T03:56:15;3.03;;;2.20;;
58384;SDS011;44185;47.844;8.966;2024-01-16T03:58:41;5.20;;;2.47;;
58384;SDS011;44185;47.844;8.966;2024-01-16T04:01:06;5.97;;;3.37;;
58384;SDS011;44185;47.844;8.966;2024-01-16T04:03:32;4.03;;;2.63;;
58384;SDS011;44185;47.844;8.966;2024-01-16T04:05:59;2.93;;;2.53;;
58384;SDS011;44185;47.844;8.966;2024-01-16T04:08:24;6.63;;;2.93;;
58384;SDS011;44185;47.844;8.966;2024-01-16T04:10:50;4.67;;;2.47;;
58384;SDS011;44185;47.844;8.966;2024-01-16T04:13:15;3.73;;;2.80;;
58384;SDS011;44185;47.844;8.966;2024-01-16T04:15:41;5.26;;;2.74;;
58384;SDS011;44185;47.844;8.966;2024-01-16T04:18:06;3.87;;;1.90;;
58384;SDS011;44185;47.844;8.966;2024-01-16T04:20:31;2.67;;;2.00;;
58384;SDS011;44185;47.844;8.966;2024-01-16T04:22:58;5.23;;;2.63;;
58384;SDS011;44185;47.844;8.966;2024-01-16T04:25:24;2.70;;;2.37;;
58384;SDS011;44185;47.844;8.966;2024-01-16T04:27:49;4.27;;;2.63;;
58384;SDS011;44185;47.844;8.966;2024-01-16T04:30:15;4.20;;;2.57;;
58384;SDS011;44185;47.844;8.966;2024-01-16T04:32:40;3.33;;;2.33;;
58384;SDS011;44185;47.844;8.966;2024-01-16T04:35:06;6.73;;;2.70;;
58384;SDS011;44185;47.844;8.966;2024-01-16T04:37:32;8.57;;;3.27;;
58384;SDS011;44185;47.844;8.966;2024-01-16T04:39:59;3.47;;;2.10;;
58384;SDS011;44185;47.844;8.966;2024-01-16T04:42:25;7.23;;;2.83;;
58384;SDS011;44185;47.844;8.966;2024-01-16T04:44:50;4.57;;;2.30;;
58384;SDS011;44185;47.844;8.966;2024-01-16T04:47:16;5.47;;;3.17;;
58384;SDS011;44185;47.844;8.966;2024-01-16T04:49:41;5.57;;;2.90;;
58384;SDS011;44185;47.844;8.966;2024-01-16T04:52:07;5.60;;;3.00;;
58384;SDS011;44185;47.844;8.966;2024-01-16T04:54:32;7.67;;;2.73;;
58384;SDS011;44185;47.844;8.966;2024-01-16T04:56:59;5.03;;;2.73;;
58384;SDS011;44185;47.844;8.966;2024-01-16T04:59:25;9.93;;;3.13;;
58384;SDS011;44185;47.844;8.966;2024-01-16T05:01:50;5.07;;;2.80;;
58384;SDS011;44185;47.844;8.966;2024-01-16T05:04:16;3.33;;;2.37;;
58384;SDS011;44185;47.844;8.966;2024-01-16T05:06:41;3.73;;;1.90;;
58384;SDS011;44185;47.844;8.966;2024-01-16T05:09:07;3.77;;;2.43;;
58384;SDS011;44185;47.844;8.966;2024-01-16T05:11:32;2.87;;;1.60;;
58384;SDS011;44185;47.844;8.966;2024-01-16T05:13:59;2.57;;;1.90;;
58384;SDS011;44185;47.844;8.966;2024-01-16T05:16:24;4.30;;;2.10;;
58384;SDS011;44185;47.844;8.966;2024-01-16T05:18:50;3.80;;;2.90;;
58384;SDS011;44185;47.844;8.966;2024-01-16T05:21:15;2.37;;;2.17;;
58384;SDS011;44185;47.844;8.966;2024-01-16T05:23:41;2.73;;;2.53;;
58384;SDS011;44185;47.844;8.966;2024-01-16T05:26:06;4.27;;;2.60;;
58384;SDS011;44185;47.844;8.966;2024-01-16T05:28:32;3.23;;;2.53;;
58384;SDS011;44185;47.844;8.966;2024-01-16T05:31:03;6.93;;;2.83;;
58384;SDS011;44185;47.844;8.966;2024-01-16T05:33:49;5.53;;;3.17;;
58384;SDS011;44185;47.844;8.966;2024-01-16T05:36:15;4.83;;;2.80;;
58384;SDS011;44185;47.844;8.966;2024-01-16T05:38:40;4.60;;;2.53;;
58384;SDS011;44185;47.844;8.966;2024-01-16T05:41:06;3.40;;;2.47;;
58384;SDS011;44185;47.844;8.966;2024-01-16T05:43:31;2.30;;;1.90;;
58384;SDS011;44185;47.844;8.966;2024-01-16T05:45:57;4.40;;;2.87;;
58384;SDS011;44185;47.844;8.966;2024-01-16T05:48:24;3.73;;;2.43;;
58384;SDS011;44185;47.844;8.966;2024-01-16T05:50:49;2.73;;;2.53;;
58384;SDS011;44185;47.844;8.966;2024-01-16T05:53:15;4.97;;;3.47;;
58384;SDS011;44185;47.844;8.966;2024-01-16T05:55:40;7.33;;;4.03;;
58384;SDS011;44185;47.844;8.966;2024-01-16T05:58:06;5.47;;;3.90;;
58384;SDS011;44185;47.844;8.966;2024-01-16T06:00:31;8.50;;;4.23;;
58384;SDS011;44185;47.844;8.966;2024-01-16T06:02:57;8.50;;;3.97;;
58384;SDS011;44185;47.844;8.966;2024-01-16T06:05:24;7.17;;;3.63;;
58384;SDS011;44185;47.844;8.966;2024-01-16T06:07:49;6.30;;;4.00;;
58384;SDS011;44185;47.844;8.966;2024-01-16T06:10:15;6.73;;;3.30;;
58384;SDS011;44185;47.844;8.966;2024-01-16T06:12:40;6.53;;;4.33;;
58384;SDS011;44185;47.844;8.966;2024-01-16T06:15:06;7.13;;;4.40;;
58384;SDS011;44185;47.844;8.966;2024-01-16T06:17:32;7.70;;;3.93;;
58384;SDS011;44185;47.844;8.966;2024-01-16T06:19:57;8.03;;;4.37;;
58384;SDS011;44185;47.844;8.966;2024-01-16T06:22:24;8.77;;;4.50;;
58384;SDS011;44185;47.844;8.966;2024-01-16T06:24:50;6.93;;;3.90;;
58384;SDS011;44185;47.844;8.966;2024-01-16T06:27:15;4.03;;;3.47;;
58384;SDS011;44185;47.844;8.966;2024-01-16T06:29:41;8.23;;;3.83;;
58384;SDS011;44185;47.844;8.966;2024-01-16T06:32:06;6.27;;;4.20;;
58384;SDS011;44185;47.844;8.966;2024-01-16T06:34:32;7.53;;;3.43;;
58384;SDS011;44185;47.844;8.966;2024-01-16T06:36:57;5.70;;;3.50;;
58384;SDS011;44185;47.844;8.966;2024-01-16T06:39:24;8.40;;;4.07;;
58384;SDS011;44185;47.844;8.966;2024-01-16T06:41:49;9.33;;;3.50;;
58384;SDS011;44185;47.844;8.966;2024-01-16T06:44:15;6.27;;;3.40;;
58384;SDS011;44185;47.844;8.966;2024-01-16T06:46:40;3.87;;;2.83;;
58384;SDS011;44185;47.844;8.966;2024-01-16T06:49:06;4.77;;;2.97;;
58384;SDS011;44185;47.844;8.966;2024-01-16T06:51:31;8.37;;;3.97;;
58384;SDS011;44185;47.844;8.966;2024-01-16T06:53:57;10.47;;;4.27;;
58384;SDS011;44185;47.844;8.966;2024-01-16T06:56:24;4.13;;;3.50;;
58384;SDS011;44185;47.844;8.966;2024-01-16T06:58:49;4.47;;;3.13;;
58384;SDS011;44185;47.844;8.966;2024-01-16T07:01:15;9.47;;;4.47;;
58384;SDS011;44185;47.844;8.966;2024-01-16T07:03:40;10.10;;;3.85;;
58384;SDS011;44185;47.844;8.966;2024-01-16T07:06:06;6.53;;;4.47;;
58384;SDS011;44185;47.844;8.966;2024-01-16T07:08:31;10.27;;;3.77;;
58384;SDS011;44185;47.844;8.966;2024-01-16T07:10:57;3.07;;;1.80;;
58384;SDS011;44185;47.844;8.966;2024-01-16T07:13:24;4.07;;;2.73;;
58384;SDS011;44185;47.844;8.966;2024-01-16T07:15:49;7.37;;;3.63;;
58384;SDS011;44185;47.844;8.966;2024-01-16T07:18:15;3.20;;;2.90;;
58384;SDS011;44185;47.844;8.966;2024-01-16T07:20:40;6.60;;;3.82;;
58384;SDS011;44185;47.844;8.966;2024-01-16T07:23:06;6.80;;;4.17;;
58384;SDS011;44185;47.844;8.966;2024-01-16T07:25:31;8.27;;;3.60;;
58384;SDS011;44185;47.844;8.966;2024-01-16T07:27:57;8.73;;;4.07;;
58384;SDS011;44185;47.844;8.966;2024-01-16T07:30:24;5.47;;;3.20;;
58384;SDS011;44185;47.844;8.966;2024-01-16T07:32:49;5.77;;;3.93;;
58384;SDS011;44185;47.844;8.966;2024-01-16T07:35:15;6.53;;;3.83;;
58384;SDS011;44185;47.844;8.966;2024-01-16T07:37:40;7.40;;;3.97;;
58384;SDS011;44185;47.844;8.966;2024-01-16T07:40:06;9.10;;;4.03;;
58384;SDS011;44185;47.844;8.966;2024-01-16T07:42:32;12.73;;;3.47;;
58384;SDS011;44185;47.844;8.966;2024-01-16T07:44:58;6.13;;;4.07;;
58384;SDS011;44185;47.844;8.966;2024-01-16T07:47:25;6.60;;;3.60;;
58384;SDS011;44185;47.844;8.966;2024-01-16T07:49:50;8.83;;;4.53;;
58384;SDS011;44185;47.844;8.966;2024-01-16T07:52:15;10.43;;;4.77;;
58384;SDS011;44185;47.844;8.966;2024-01-16T07:54:41;9.20;;;4.37;;
58384;SDS011;44185;47.844;8.966;2024-01-16T07:57:06;20.13;;;7.10;;
58384;SDS011;44185;47.844;8.966;2024-01-16T07:59:32;77.40;;;29.63;;
58384;SDS011;44185;47.844;8.966;2024-01-16T08:01:57;65.10;;;28.13;;
58384;SDS011;44185;47.844;8.966;2024-01-16T08:04:24;25.47;;;11.70;;
58384;SDS011;44185;47.844;8.966;2024-01-16T08:06:49;23.10;;;8.10;;
58384;SDS011;44185;47.844;8.966;2024-01-16T08:09:15;17.10;;;7.47;;
58384;SDS011;44185;47.844;8.966;2024-01-16T08:11:40;9.37;;;6.37;;
58384;SDS011;44185;47.844;8.966;2024-01-16T08:14:06;28.57;;;15.93;;
58384;SDS011;44185;47.844;8.966;2024-01-16T08:16:31;18.90;;;11.73;;
58384;SDS011;44185;47.844;8.966;2024-01-16T08:18:57;21.67;;;13.20;;
58384;SDS011;44185;47.844;8.966;2024-01-16T08:21:24;17.67;;;9.67;;
58384;SDS011;44185;47.844;8.966;2024-01-16T08:23:49;14.17;;;6.93;;
58384;SDS011;44185;47.844;8.966;2024-01-16T08:26:15;10.77;;;4.90;;
58384;SDS011;44185;47.844;8.966;2024-01-16T08:28:40;7.24;;;4.52;;
58384;SDS011;44185;47.844;8.966;2024-01-16T08:31:06;11.93;;;5.63;;
58384;SDS011;44185;47.844;8.966;2024-01-16T08:33:31;12.40;;;4.37;;
58384;SDS011;44185;47.844;8.966;2024-01-16T08:35:57;10.07;;;4.37;;
58384;SDS011;44185;47.844;8.966;2024-01-16T08:38:24;11.73;;;5.80;;
58384;SDS011;44185;47.844;8.966;2024-01-16T08:40:49;6.13;;;3.53;;
58384;SDS011;44185;47.844;8.966;2024-01-16T08:43:14;6.27;;;3.30;;
58384;SDS011;44185;47.844;8.966;2024-01-16T08:45:40;11.20;;;4.70;;
58384;SDS011;44185;47.844;8.966;2024-01-16T08:48:06;8.17;;;4.13;;
58384;SDS011;44185;47.844;8.966;2024-01-16T08:50:31;5.13;;;3.85;;
58384;SDS011;44185;47.844;8.966;2024-01-16T08:52:57;11.73;;;4.88;;
58384;SDS011;44185;47.844;8.966;2024-01-16T08:55:24;11.32;;;4.70;;
58384;SDS011;44185;47.844;8.966;2024-01-16T08:57:49;10.32;;;5.35;;
58384;SDS011;44185;47.844;8.966;2024-01-16T09:00:15;12.23;;;5.05;;
58384;SDS011;44185;47.844;8.966;2024-01-16T09:02:41;11.63;;;6.22;;
58384;SDS011;44185;47.844;8.966;2024-01-16T09:05:06;14.10;;;5.45;;
58384;SDS011;44185;47.844;8.966;2024-01-16T09:07:32;46.15;;;20.20;;
58384;SDS011;44185;47.844;8.966;2024-01-16T09:09:58;12.98;;;6.38;;
58384;SDS011;44185;47.844;8.966;2024-01-16T09:12:25;12.38;;;6.43;;
58384;SDS011;44185;47.844;8.966;2024-01-16T09:14:50;31.73;;;15.98;;
58384;SDS011;44185;47.844;8.966;2024-01-16T09:17:15;16.10;;;7.32;;
58384;SDS011;44185;47.844;8.966;2024-01-16T09:19:41;11.60;;;5.25;;
58384;SDS011;44185;47.844;8.966;2024-01-16T09:22:06;8.63;;;4.45;;
58384;SDS011;44185;47.844;8.966;2024-01-16T09:24:32;9.98;;;4.60;;
58384;SDS011;44185;47.844;8.966;2024-01-16T09:26:57;8.50;;;4.10;;
58384;SDS011;44185;47.844;8.966;2024-01-16T09:29:24;7.82;;;4.10;;
58384;SDS011;44185;47.844;8.966;2024-01-16T09:31:50;10.30;;;4.38;;
58384;SDS011;44185;47.844;8.966;2024-01-16T09:34:15;9.68;;;4.90;;
58384;SDS011;44185;47.844;8.966;2024-01-16T09:36:41;11.13;;;4.18;;
58384;SDS011;44185;47.844;8.966;2024-01-16T09:39:06;13.23;;;5.63;;
58384;SDS011;44185;47.844;8.966;2024-01-16T09:41:32;11.17;;;5.40;;
58384;SDS011;44185;47.844;8.966;2024-01-16T09:43:58;10.02;;;4.30;;
58384;SDS011;44185;47.844;8.966;2024-01-16T09:46:25;12.38;;;5.22;;
58384;SDS011;44185;47.844;8.966;2024-01-16T09:48:51;13.07;;;5.22;;
58384;SDS011;44185;47.844;8.966;2024-01-16T09:51:20;11.80;;;4.22;;
58384;SDS011;44185;47.844;8.966;2024-01-16T09:53:45;20.30;;;5.47;;
58384;SDS011;44185;47.844;8.966;2024-01-16T09:56:13;8.02;;;4.07;;
58384;SDS011;44185;47.844;8.966;2024-01-16T09:58:39;9.38;;;4.75;;
58384;SDS011;44185;47.844;8.966;2024-01-16T10:01:06;13.90;;;6.88;;
58384;SDS011;44185;47.844;8.966;2024-01-16T10:03:33;12.63;;;6.22;;
58384;SDS011;44185;47.844;8.966;2024-01-16T10:05:59;19.48;;;7.53;;
58384;SDS011;44185;47.844;8.966;2024-01-16T10:08:30;13.95;;;7.25;;
58384;SDS011;44185;47.844;8.966;2024-01-16T10:10:55;16.52;;;5.82;;
58384;SDS011;44185;47.844;8.966;2024-01-16T10:13:21;17.42;;;5.80;;
58384;SDS011;44185;47.844;8.966;2024-01-16T10:15:48;15.10;;;5.90;;
58384;SDS011;44185;47.844;8.966;2024-01-16T10:18:24;11.43;;;4.68;;
58384;SDS011;44185;47.844;8.966;2024-01-16T10:20:52;19.48;;;5.22;;
58384;SDS011;44185;47.844;8.966;2024-01-16T10:23:24;13.23;;;4.75;;
58384;SDS011;44185;47.844;8.966;2024-01-16T10:26:06;9.88;;;4.38;;
58384;SDS011;44185;47.844;8.966;2024-01-16T10:28:32;10.68;;;4.45;;
58384;SDS011;44185;47.844;8.966;2024-01-16T10:31:01;8.18;;;4.55;;
58384;SDS011;44185;47.844;8.966;2024-01-16T10:33:27;10.88;;;4.63;;
58384;SDS011;44185;47.844;8.966;2024-01-16T10:35:53;12.38;;;6.07;;
58384;SDS011;44185;47.844;8.966;2024-01-16T10:38:33;13.20;;;6.20;;
58384;SDS011;44185;47.844;8.966;2024-01-16T10:41:06;11.82;;;5.30;;
58384;SDS011;44185;47.844;8.966;2024-01-16T10:43:34;13.88;;;7.15;;
58384;SDS011;44185;47.844;8.966;2024-01-16T10:46:06;12.57;;;8.13;;
58384;SDS011;44185;47.844;8.966;2024-01-16T10:48:32;11.55;;;6.22;;
58384;SDS011;44185;47.844;8.966;2024-01-16T10:50:59;14.10;;;6.28;;
58384;SDS011;44185;47.844;8.966;2024-01-16T10:53:26;9.80;;;5.40;;
58384;SDS011;44185;47.844;8.966;2024-01-16T10:55:57;11.30;;;5.25;;
58384;SDS011;44185;47.844;8.966;2024-01-16T10:58:24;11.40;;;5.32;;
58384;SDS011;44185;47.844;8.966;2024-01-16T11:00:50;15.50;;;6.28;;
58384;SDS011;44185;47.844;8.966;2024-01-16T11:03:18;15.60;;;4.82;;
58384;SDS011;44185;47.844;8.966;2024-01-16T11:05:49;7.53;;;4.25;;
58384;SDS011;44185;47.844;8.966;2024-01-16T11:08:17;7.13;;;3.58;;
58384;SDS011;44185;47.844;8.966;2024-01-16T11:10:43;9.48;;;3.85;;
58384;SDS011;44185;47.844;8.966;2024-01-16T11:13:09;6.55;;;3.60;;
58384;SDS011;44185;47.844;8.966;2024-01-16T11:15:36;7.50;;;3.78;;
58384;SDS011;44185;47.844;8.966;2024-01-16T11:18:03;10.00;;;4.22;;
58384;SDS011;44185;47.844;8.966;2024-01-16T11:20:30;7.53;;;4.40;;
58384;SDS011;44185;47.844;8.966;2024-01-16T11:22:57;10.68;;;4.70;;
58384;SDS011;44185;47.844;8.966;2024-01-16T11:25:30;8.30;;;4.18;;
58384;SDS011;44185;47.844;8.966;2024-01-16T11:27:57;9.73;;;4.00;;
58384;SDS011;44185;47.844;8.966;2024-01-16T11:30:33;10.18;;;5.05;;
58384;SDS011;44185;47.844;8.966;2024-01-16T11:32:58;8.13;;;3.70;;
58384;SDS011;44185;47.844;8.966;2024-01-16T11:35:31;9.55;;;4.63;;
58384;SDS011;44185;47.844;8.966;2024-01-16T11:38:02;8.30;;;4.50;;
58384;SDS011;44185;47.844;8.966;2024-01-16T11:40:33;7.28;;;4.15;;
58384;SDS011;44185;47.844;8.966;2024-01-16T11:48:15;9.65;;;4.07;;
58384;SDS011;44185;47.844;8.966;2024-01-16T11:50:41;10.35;;;4.72;;
58384;SDS011;44185;47.844;8.966;2024-01-16T11:53:07;7.75;;;4.40;;
58384;SDS011;44185;47.844;8.966;2024-01-16T11:55:35;11.40;;;5.40;;
58384;SDS011;44185;47.844;8.966;2024-01-16T11:58:20;14.25;;;5.47;;
58384;SDS011;44185;47.844;8.966;2024-01-16T12:00:55;12.27;;;5.35;;
58384;SDS011;44185;47.844;8.966;2024-01-16T12:03:22;11.80;;;5.60;;
58384;SDS011;44185;47.844;8.966;2024-01-16T12:05:54;8.50;;;4.28;;
58384;SDS011;44185;47.844;8.966;2024-01-16T12:08:20;9.38;;;3.78;;
58384;SDS011;44185;47.844;8.966;2024-01-16T12:10:47;7.97;;;3.65;;
58384;SDS011;44185;47.844;8.966;2024-01-16T12:13:13;8.93;;;4.10;;
58384;SDS011;44185;47.844;8.966;2024-01-16T12:15:39;10.73;;;3.97;;
58384;SDS011;44185;47.844;8.966;2024-01-16T12:18:05;5.07;;;3.20;;
58384;SDS011;44185;47.844;8.966;2024-01-16T12:20:30;8.90;;;4.28;;
58384;SDS011;44185;47.844;8.966;2024-01-16T12:22:57;9.07;;;4.47;;
58384;SDS011;44185;47.844;8.966;2024-01-16T12:25:23;7.93;;;3.40;;
58384;SDS011;44185;47.844;8.966;2024-01-16T12:27:57;4.65;;;2.53;;
58384;SDS011;44185;47.844;8.966;2024-01-16T12:30:27;9.38;;;3.88;;
58384;SDS011;44185;47.844;8.966;2024-01-16T12:35:29;9.10;;;4.18;;
58384;SDS011;44185;47.844;8.966;2024-01-16T12:37:58;10.93;;;4.45;;
58384;SDS011;44185;47.844;8.966;2024-01-16T12:40:24;10.17;;;4.00;;
58384;SDS011;44185;47.844;8.966;2024-01-16T12:42:50;7.15;;;4.05;;
58384;SDS011;44185;47.844;8.966;2024-01-16T12:45:18;12.10;;;5.07;;
58384;SDS011;44185;47.844;8.966;2024-01-16T12:47:43;8.15;;;3.90;;
58384;SDS011;44185;47.844;8.966;2024-01-16T12:50:09;10.02;;;4.00;;
58384;SDS011;44185;47.844;8.966;2024-01-16T12:52:34;11.15;;;4.43;;
58384;SDS011;44185;47.844;8.966;2024-01-16T12:55:00;11.23;;;4.35;;
58384;SDS011;44185;47.844;8.966;2024-01-16T12:57:25;12.23;;;4.30;;
58384;SDS011;44185;47.844;8.966;2024-01-16T12:59:51;9.40;;;4.55;;
58384;SDS011;44185;47.844;8.966;2024-01-16T13:02:22;10.30;;;4.05;;
58384;SDS011;44185;47.844;8.966;2024-01-16T13:04:48;10.32;;;4.57;;
58384;SDS011;44185;47.844;8.966;2024-01-16T13:07:21;11.40;;;4.60;;
58384;SDS011;44185;47.844;8.966;2024-01-16T13:09:46;10.60;;;4.47;;
58384;SDS011;44185;47.844;8.966;2024-01-16T13:12:19;10.90;;;5.05;;
58384;SDS011;44185;47.844;8.966;2024-01-16T13:14:44;11.98;;;4.72;;
58384;SDS011;44185;47.844;8.966;2024-01-16T13:17:10;13.23;;;4.82;;
58384;SDS011;44185;47.844;8.966;2024-01-16T13:19:37;7.88;;;3.92;;
58384;SDS011;44185;47.844;8.966;2024-01-16T13:22:05;11.25;;;4.57;;
58384;SDS011;44185;47.844;8.966;2024-01-16T13:24:30;12.55;;;4.72;;
58384;SDS011;44185;47.844;8.966;2024-01-16T13:26:55;10.98;;;4.53;;
58384;SDS011;44185;47.844;8.966;2024-01-16T13:29:21;11.30;;;4.60;;
58384;SDS011;44185;47.844;8.966;2024-01-16T13:31:46;12.77;;;4.85;;
58384;SDS011;44185;47.844;8.966;2024-01-16T13:34:12;9.95;;;4.70;;
58384;SDS011;44185;47.844;8.966;2024-01-16T13:36:39;8.45;;;4.75;;
58384;SDS011;44185;47.844;8.966;2024-01-16T13:39:04;7.90;;;4.22;;
58384;SDS011;44185;47.844;8.966;2024-01-16T13:41:30;9.40;;;4.75;;
58384;SDS011;44185;47.844;8.966;2024-01-16T13:43:55;12.50;;;5.28;;
58384;SDS011;44185;47.844;8.966;2024-01-16T13:46:21;11.68;;;4.82;;
58384;SDS011;44185;47.844;8.966;2024-01-16T13:48:46;11.93;;;4.28;;
58384;SDS011;44185;47.844;8.966;2024-01-16T13:51:12;11.65;;;4.95;;
58384;SDS011;44185;47.844;8.966;2024-01-16T13:53:39;8.93;;;4.30;;
58384;SDS011;44185;47.844;8.966;2024-01-16T13:56:04;15.20;;;5.55;;
58384;SDS011;44185;47.844;8.966;2024-01-16T13:58:30;9.18;;;4.40;;
58384;SDS011;44185;47.844;8.966;2024-01-16T14:00:55;10.82;;;4.90;;
58384;SDS011;44185;47.844;8.966;2024-01-16T14:03:21;12.60;;;4.72;;
58384;SDS011;44185;47.844;8.966;2024-01-16T14:05:46;8.45;;;4.03;;
58384;SDS011;44185;47.844;8.966;2024-01-16T14:08:12;9.07;;;4.50;;
58384;SDS011;44185;47.844;8.966;2024-01-16T14:10:39;10.30;;;4.90;;
58384;SDS011;44185;47.844;8.966;2024-01-16T14:13:04;12.65;;;5.15;;
58384;SDS011;44185;47.844;8.966;2024-01-16T14:15:30;9.85;;;4.63;;
58384;SDS011;44185;47.844;8.966;2024-01-16T14:17:56;13.02;;;5.30;;
58384;SDS011;44185;47.844;8.966;2024-01-16T14:20:22;11.52;;;5.38;;
58384;SDS011;44185;47.844;8.966;2024-01-16T14:22:48;9.70;;;4.80;;
58384;SDS011;44185;47.844;8.966;2024-01-16T14:25:14;13.20;;;5.15;;
58384;SDS011;44185;47.844;8.966;2024-01-16T14:27:43;11.57;;;5.20;;
58384;SDS011;44185;47.844;8.966;2024-01-16T14:30:10;10.27;;;5.07;;
58384;SDS011;44185;47.844;8.966;2024-01-16T14:32:36;9.80;;;4.63;;
58384;SDS011;44185;47.844;8.966;2024-01-16T14:35:02;10.27;;;4.80;;
58384;SDS011;44185;47.844;8.966;2024-01-16T14:37:27;9.38;;;4.63;;
58384;SDS011;44185;47.844;8.966;2024-01-16T14:39:53;9.55;;;4.53;;
58384;SDS011;44185;47.844;8.966;2024-01-16T14:42:18;10.52;;;4.88;;
58384;SDS011;44185;47.844;8.966;2024-01-16T14:44:45;7.63;;;4.43;;